sensor_id;sensor_type;location;lat;lon;timestamp;P1;durP1;ratioP1;P2;durP2;ratioP2
34836;SDS011;21053;50.848;4.652;2023-03-23T00:03:47;6.40;;;3.67;;
34836;SDS011;21053;50.848;4.652;2023-03-23T00:06:19;7.55;;;3.15;;
34836;SDS011;21053;50.848;4.652;2023-03-23T00:08:48;6.30;;;3.35;;
34836;SDS011;21053;50.848;4.652;2023-03-23T00:11:21;9.95;;;3.65;;
34836;SDS011;21053;50.848;4.652;2023-03-23T00:13:52;5.97;;;3.47;;
34836;SDS011;21053;50.848;4.652;2023-03-23T00:16:24;7.32;;;3.47;;
34836;SDS011;21053;50.848;4.652;2023-03-23T00:19:00;7.53;;;3.50;;
34836;SDS011;21053;50.848;4.652;2023-03-23T00:21:29;6.72;;;3.33;;
34836;SDS011;21053;50.848;4.652;2023-03-23T00:24:10;8.93;;;3.53;;
34836;SDS011;21053;50.848;4.652;2023-03-23T00:29:18;7.45;;;3.63;;
34836;SDS011;21053;50.848;4.652;2023-03-23T00:31:47;5.97;;;3.28;;
34836;SDS011;21053;50.848;4.652;2023-03-23T00:34:16;5.97;;;3.75;;
34836;SDS011;21053;50.848;4.652;2023-03-23T00:36:50;7.13;;;3.33;;
34836;SDS011;21053;50.848;4.652;2023-03-23T00:39:22;12.43;;;3.40;;
34836;SDS011;21053;50.848;4.652;2023-03-23T00:44:29;6.88;;;3.65;;
34836;SDS011;21053;50.848;4.652;2023-03-23T00:46:59;9.02;;;3.60;;
34836;SDS011;21053;50.848;4.652;2023-03-23T00:49:26;5.38;;;3.47;;
34836;SDS011;21053;50.848;4.652;2023-03-23T00:51:57;5.95;;;3.33;;
34836;SDS011;21053;50.848;4.652;2023-03-23T00:56:52;5.80;;;3.80;;
34836;SDS011;21053;50.848;4.652;2023-03-23T00:59:20;4.57;;;3.13;;
34836;SDS011;21053;50.848;4.652;2023-03-23T01:01:50;6.38;;;3.35;;
34836;SDS011;21053;50.848;4.652;2023-03-23T01:04:22;8.10;;;3.60;;
34836;SDS011;21053;50.848;4.652;2023-03-23T01:09:19;6.57;;;3.53;;
34836;SDS011;21053;50.848;4.652;2023-03-23T01:14:19;7.05;;;3.30;;
34836;SDS011;21053;50.848;4.652;2023-03-23T01:16:47;5.93;;;3.55;;
34836;SDS011;21053;50.848;4.652;2023-03-23T01:19:16;10.13;;;3.85;;
34836;SDS011;21053;50.848;4.652;2023-03-23T01:21:42;5.57;;;3.40;;
34836;SDS011;21053;50.848;4.652;2023-03-23T01:24:09;6.00;;;3.35;;
34836;SDS011;21053;50.848;4.652;2023-03-23T01:26:36;7.18;;;3.30;;
34836;SDS011;21053;50.848;4.652;2023-03-23T01:29:03;9.75;;;3.45;;
34836;SDS011;21053;50.848;4.652;2023-03-23T01:31:29;8.60;;;3.63;;
34836;SDS011;21053;50.848;4.652;2023-03-23T01:33:55;6.93;;;3.30;;
34836;SDS011;21053;50.848;4.652;2023-03-23T01:36:25;7.65;;;3.55;;
34836;SDS011;21053;50.848;4.652;2023-03-23T01:38:54;7.05;;;3.05;;
34836;SDS011;21053;50.848;4.652;2023-03-23T01:41:26;7.43;;;3.63;;
34836;SDS011;21053;50.848;4.652;2023-03-23T01:46:27;5.80;;;3.47;;
34836;SDS011;21053;50.848;4.652;2023-03-23T01:48:58;8.15;;;3.50;;
34836;SDS011;21053;50.848;4.652;2023-03-23T01:51:49;9.15;;;3.53;;
34836;SDS011;21053;50.848;4.652;2023-03-23T01:54:24;8.18;;;3.35;;
34836;SDS011;21053;50.848;4.652;2023-03-23T01:56:54;6.38;;;3.47;;
34836;SDS011;21053;50.848;4.652;2023-03-23T02:02:09;7.05;;;3.33;;
34836;SDS011;21053;50.848;4.652;2023-03-23T02:04:39;6.72;;;3.30;;
34836;SDS011;21053;50.848;4.652;2023-03-23T02:07:09;7.95;;;3.42;;
34836;SDS011;21053;50.848;4.652;2023-03-23T02:12:07;5.45;;;3.33;;
34836;SDS011;21053;50.848;4.652;2023-03-23T02:20:06;11.82;;;3.38;;
34836;SDS011;21053;50.848;4.652;2023-03-23T02:23:12;6.40;;;3.65;;
34836;SDS011;21053;50.848;4.652;2023-03-23T02:31:44;5.35;;;2.90;;
34836;SDS011;21053;50.848;4.652;2023-03-23T02:34:22;5.65;;;3.03;;
34836;SDS011;21053;50.848;4.652;2023-03-23T02:37:09;8.13;;;3.03;;
34836;SDS011;21053;50.848;4.652;2023-03-23T02:39:47;14.02;;;4.00;;
34836;SDS011;21053;50.848;4.652;2023-03-23T02:42:17;8.90;;;2.90;;
34836;SDS011;21053;50.848;4.652;2023-03-23T02:44:56;6.88;;;2.55;;
34836;SDS011;21053;50.848;4.652;2023-03-23T02:49:55;7.85;;;3.10;;
34836;SDS011;21053;50.848;4.652;2023-03-23T02:52:29;14.82;;;2.83;;
34836;SDS011;21053;50.848;4.652;2023-03-23T02:54:57;6.15;;;2.70;;
34836;SDS011;21053;50.848;4.652;2023-03-23T02:57:26;5.47;;;2.92;;
34836;SDS011;21053;50.848;4.652;2023-03-23T02:59:54;8.13;;;2.80;;
34836;SDS011;21053;50.848;4.652;2023-03-23T03:02:28;6.38;;;2.72;;
34836;SDS011;21053;50.848;4.652;2023-03-23T03:13:37;6.78;;;2.78;;
34836;SDS011;21053;50.848;4.652;2023-03-23T03:16:30;6.05;;;2.90;;
34836;SDS011;21053;50.848;4.652;2023-03-23T03:19:12;8.90;;;2.88;;
34836;SDS011;21053;50.848;4.652;2023-03-23T03:21:50;4.80;;;2.30;;
34836;SDS011;21053;50.848;4.652;2023-03-23T03:24:19;9.77;;;3.40;;
34836;SDS011;21053;50.848;4.652;2023-03-23T03:26:51;8.48;;;2.60;;
34836;SDS011;21053;50.848;4.652;2023-03-23T03:29:31;9.05;;;2.63;;
34836;SDS011;21053;50.848;4.652;2023-03-23T03:32:00;7.53;;;2.58;;
34836;SDS011;21053;50.848;4.652;2023-03-23T03:34:37;5.68;;;2.58;;
34836;SDS011;21053;50.848;4.652;2023-03-23T03:37:04;4.07;;;2.50;;
34836;SDS011;21053;50.848;4.652;2023-03-23T03:39:34;5.97;;;2.92;;
34836;SDS011;21053;50.848;4.652;2023-03-23T03:44:32;5.60;;;2.67;;
34836;SDS011;21053;50.848;4.652;2023-03-23T03:46:59;6.13;;;2.22;;
34836;SDS011;21053;50.848;4.652;2023-03-23T03:49:42;5.97;;;3.00;;
34836;SDS011;21053;50.848;4.652;2023-03-23T03:52:09;5.72;;;2.60;;
34836;SDS011;21053;50.848;4.652;2023-03-23T03:59:59;2.78;;;2.17;;
34836;SDS011;21053;50.848;4.652;2023-03-23T04:02:28;8.60;;;3.05;;
34836;SDS011;21053;50.848;4.652;2023-03-23T04:04:54;8.38;;;2.65;;
34836;SDS011;21053;50.848;4.652;2023-03-23T04:09:54;8.25;;;2.90;;
34836;SDS011;21053;50.848;4.652;2023-03-23T04:12:21;6.07;;;2.58;;
34836;SDS011;21053;50.848;4.652;2023-03-23T04:14:49;7.43;;;2.50;;
34836;SDS011;21053;50.848;4.652;2023-03-23T04:17:17;7.90;;;2.63;;
34836;SDS011;21053;50.848;4.652;2023-03-23T04:19:47;10.70;;;2.65;;
34836;SDS011;21053;50.848;4.652;2023-03-23T04:22:15;8.98;;;2.70;;
34836;SDS011;21053;50.848;4.652;2023-03-23T04:24:43;6.15;;;2.40;;
34836;SDS011;21053;50.848;4.652;2023-03-23T04:27:12;6.20;;;2.72;;
34836;SDS011;21053;50.848;4.652;2023-03-23T04:32:10;10.90;;;2.95;;
34836;SDS011;21053;50.848;4.652;2023-03-23T04:34:52;9.50;;;2.40;;
34836;SDS011;21053;50.848;4.652;2023-03-23T04:37:20;10.07;;;2.40;;
34836;SDS011;21053;50.848;4.652;2023-03-23T04:39:46;12.60;;;2.25;;
34836;SDS011;21053;50.848;4.652;2023-03-23T04:44:44;12.25;;;2.90;;
34836;SDS011;21053;50.848;4.652;2023-03-23T04:47:20;16.30;;;2.08;;
34836;SDS011;21053;50.848;4.652;2023-03-23T04:52:18;6.57;;;2.22;;
34836;SDS011;21053;50.848;4.652;2023-03-23T04:54:48;5.80;;;1.98;;
34836;SDS011;21053;50.848;4.652;2023-03-23T04:57:16;8.52;;;2.20;;
34836;SDS011;21053;50.848;4.652;2023-03-23T04:59:45;6.75;;;1.90;;
34836;SDS011;21053;50.848;4.652;2023-03-23T05:02:11;9.00;;;1.75;;
34836;SDS011;21053;50.848;4.652;2023-03-23T05:07:07;10.95;;;2.20;;
34836;SDS011;21053;50.848;4.652;2023-03-23T05:12:11;13.35;;;1.92;;
34836;SDS011;21053;50.848;4.652;2023-03-23T05:14:40;7.20;;;1.83;;
34836;SDS011;21053;50.848;4.652;2023-03-23T05:19:36;13.70;;;2.10;;
34836;SDS011;21053;50.848;4.652;2023-03-23T05:24:34;5.00;;;1.80;;
34836;SDS011;21053;50.848;4.652;2023-03-23T05:27:07;3.05;;;1.70;;
34836;SDS011;21053;50.848;4.652;2023-03-23T05:32:04;9.75;;;2.00;;
34836;SDS011;21053;50.848;4.652;2023-03-23T05:37:04;12.63;;;2.20;;
34836;SDS011;21053;50.848;4.652;2023-03-23T05:39:32;7.68;;;1.95;;
34836;SDS011;21053;50.848;4.652;2023-03-23T05:41:59;5.13;;;1.75;;
34836;SDS011;21053;50.848;4.652;2023-03-23T05:49:29;9.77;;;2.08;;
34836;SDS011;21053;50.848;4.652;2023-03-23T05:54:27;5.75;;;1.73;;
34836;SDS011;21053;50.848;4.652;2023-03-23T05:56:56;9.38;;;1.85;;
34836;SDS011;21053;50.848;4.652;2023-03-23T05:59:23;8.50;;;2.05;;
34836;SDS011;21053;50.848;4.652;2023-03-23T06:04:25;7.43;;;1.95;;
34836;SDS011;21053;50.848;4.652;2023-03-23T06:06:53;8.18;;;2.38;;
34836;SDS011;21053;50.848;4.652;2023-03-23T06:09:21;7.20;;;2.20;;
34836;SDS011;21053;50.848;4.652;2023-03-23T06:11:49;9.88;;;2.40;;
34836;SDS011;21053;50.848;4.652;2023-03-23T06:14:18;4.65;;;2.03;;
34836;SDS011;21053;50.848;4.652;2023-03-23T06:16:45;5.75;;;2.10;;
34836;SDS011;21053;50.848;4.652;2023-03-23T06:19:14;8.52;;;2.22;;
34836;SDS011;21053;50.848;4.652;2023-03-23T06:24:09;6.22;;;2.30;;
34836;SDS011;21053;50.848;4.652;2023-03-23T06:31:38;8.15;;;2.10;;
34836;SDS011;21053;50.848;4.652;2023-03-23T06:34:09;12.18;;;2.20;;
34836;SDS011;21053;50.848;4.652;2023-03-23T06:36:36;14.10;;;2.53;;
34836;SDS011;21053;50.848;4.652;2023-03-23T06:39:05;9.05;;;2.30;;
34836;SDS011;21053;50.848;4.652;2023-03-23T06:41:35;11.10;;;2.28;;
34836;SDS011;21053;50.848;4.652;2023-03-23T06:44:03;19.42;;;2.50;;
34836;SDS011;21053;50.848;4.652;2023-03-23T06:46:31;9.73;;;2.38;;
34836;SDS011;21053;50.848;4.652;2023-03-23T06:49:00;9.95;;;2.40;;
34836;SDS011;21053;50.848;4.652;2023-03-23T06:51:28;6.15;;;2.30;;
34836;SDS011;21053;50.848;4.652;2023-03-23T06:53:55;12.45;;;2.70;;
34836;SDS011;21053;50.848;4.652;2023-03-23T06:56:22;10.63;;;2.10;;
34836;SDS011;21053;50.848;4.652;2023-03-23T06:58:51;7.93;;;2.17;;
34836;SDS011;21053;50.848;4.652;2023-03-23T07:01:18;10.18;;;2.13;;
34836;SDS011;21053;50.848;4.652;2023-03-23T07:03:45;11.68;;;2.55;;
34836;SDS011;21053;50.848;4.652;2023-03-23T07:06:21;8.82;;;2.20;;
34836;SDS011;21053;50.848;4.652;2023-03-23T07:11:19;10.70;;;1.98;;
34836;SDS011;21053;50.848;4.652;2023-03-23T07:13:45;10.63;;;2.40;;
34836;SDS011;21053;50.848;4.652;2023-03-23T07:16:14;10.93;;;2.25;;
34836;SDS011;21053;50.848;4.652;2023-03-23T07:18:47;12.15;;;2.33;;
34836;SDS011;21053;50.848;4.652;2023-03-23T07:21:16;9.40;;;2.20;;
34836;SDS011;21053;50.848;4.652;2023-03-23T07:23:42;11.90;;;2.70;;
34836;SDS011;21053;50.848;4.652;2023-03-23T07:26:10;10.40;;;2.22;;
34836;SDS011;21053;50.848;4.652;2023-03-23T07:28:42;6.60;;;2.20;;
34836;SDS011;21053;50.848;4.652;2023-03-23T07:31:11;7.38;;;2.30;;
34836;SDS011;21053;50.848;4.652;2023-03-23T07:33:40;5.60;;;2.03;;
34836;SDS011;21053;50.848;4.652;2023-03-23T07:36:11;12.85;;;2.70;;
34836;SDS011;21053;50.848;4.652;2023-03-23T07:38:38;6.50;;;2.20;;
34836;SDS011;21053;50.848;4.652;2023-03-23T07:41:05;8.30;;;2.00;;
34836;SDS011;21053;50.848;4.652;2023-03-23T07:43:34;8.95;;;2.67;;
34836;SDS011;21053;50.848;4.652;2023-03-23T07:46:03;5.93;;;1.40;;
34836;SDS011;21053;50.848;4.652;2023-03-23T07:48:30;3.13;;;1.33;;
34836;SDS011;21053;50.848;4.652;2023-03-23T07:50:59;2.70;;;1.15;;
34836;SDS011;21053;50.848;4.652;2023-03-23T07:53:25;3.50;;;1.20;;
34836;SDS011;21053;50.848;4.652;2023-03-23T07:58:22;2.80;;;1.70;;
34836;SDS011;21053;50.848;4.652;2023-03-23T08:00:48;4.45;;;1.73;;
34836;SDS011;21053;50.848;4.652;2023-03-23T08:03:15;12.57;;;2.60;;
34836;SDS011;21053;50.848;4.652;2023-03-23T08:05:42;5.80;;;1.90;;
34836;SDS011;21053;50.848;4.652;2023-03-23T08:08:09;7.72;;;2.17;;
34836;SDS011;21053;50.848;4.652;2023-03-23T08:10:36;9.10;;;2.20;;
34836;SDS011;21053;50.848;4.652;2023-03-23T08:13:03;4.68;;;1.80;;
34836;SDS011;21053;50.848;4.652;2023-03-23T08:15:32;9.63;;;2.17;;
34836;SDS011;21053;50.848;4.652;2023-03-23T08:20:32;6.78;;;2.17;;
34836;SDS011;21053;50.848;4.652;2023-03-23T08:23:00;7.93;;;2.25;;
34836;SDS011;21053;50.848;4.652;2023-03-23T08:25:27;9.35;;;2.20;;
34836;SDS011;21053;50.848;4.652;2023-03-23T08:30:28;5.88;;;1.50;;
34836;SDS011;21053;50.848;4.652;2023-03-23T08:33:01;4.88;;;1.20;;
34836;SDS011;21053;50.848;4.652;2023-03-23T08:35:27;3.67;;;1.45;;
34836;SDS011;21053;50.848;4.652;2023-03-23T08:37:54;4.93;;;1.50;;
34836;SDS011;21053;50.848;4.652;2023-03-23T08:40:20;2.35;;;1.40;;
34836;SDS011;21053;50.848;4.652;2023-03-23T08:42:48;6.07;;;1.40;;
34836;SDS011;21053;50.848;4.652;2023-03-23T08:45:17;5.03;;;1.20;;
34836;SDS011;21053;50.848;4.652;2023-03-23T08:47:46;3.72;;;1.33;;
34836;SDS011;21053;50.848;4.652;2023-03-23T08:50:21;3.28;;;1.20;;
34836;SDS011;21053;50.848;4.652;2023-03-23T08:52:53;3.92;;;1.23;;
34836;SDS011;21053;50.848;4.652;2023-03-23T08:55:20;1.83;;;1.20;;
34836;SDS011;21053;50.848;4.652;2023-03-23T08:57:50;9.70;;;1.33;;
34836;SDS011;21053;50.848;4.652;2023-03-23T09:00:18;1.38;;;1.05;;
34836;SDS011;21053;50.848;4.652;2023-03-23T09:02:51;6.10;;;1.40;;
34836;SDS011;21053;50.848;4.652;2023-03-23T09:05:21;5.85;;;1.27;;
34836;SDS011;21053;50.848;4.652;2023-03-23T09:07:51;5.03;;;1.20;;
34836;SDS011;21053;50.848;4.652;2023-03-23T09:10:20;2.72;;;1.35;;
34836;SDS011;21053;50.848;4.652;2023-03-23T09:12:48;4.93;;;1.10;;
34836;SDS011;21053;50.848;4.652;2023-03-23T09:15:16;4.50;;;1.38;;
34836;SDS011;21053;50.848;4.652;2023-03-23T09:17:44;4.00;;;1.15;;
34836;SDS011;21053;50.848;4.652;2023-03-23T09:20:14;5.85;;;1.10;;
34836;SDS011;21053;50.848;4.652;2023-03-23T09:22:43;3.40;;;1.15;;
34836;SDS011;21053;50.848;4.652;2023-03-23T09:25:12;5.55;;;1.85;;
34836;SDS011;21053;50.848;4.652;2023-03-23T09:27:39;4.32;;;1.27;;
34836;SDS011;21053;50.848;4.652;2023-03-23T09:30:07;4.57;;;1.27;;
34836;SDS011;21053;50.848;4.652;2023-03-23T09:32:38;3.22;;;1.30;;
34836;SDS011;21053;50.848;4.652;2023-03-23T09:37:35;7.47;;;1.48;;
34836;SDS011;21053;50.848;4.652;2023-03-23T09:42:36;4.70;;;1.33;;
34836;SDS011;21053;50.848;4.652;2023-03-23T09:45:28;5.32;;;1.50;;
34836;SDS011;21053;50.848;4.652;2023-03-23T09:53:20;2.65;;;1.15;;
34836;SDS011;21053;50.848;4.652;2023-03-23T09:55:52;3.50;;;1.40;;
34836;SDS011;21053;50.848;4.652;2023-03-23T09:58:26;6.53;;;1.60;;
34836;SDS011;21053;50.848;4.652;2023-03-23T10:03:44;2.00;;;1.23;;
34836;SDS011;21053;50.848;4.652;2023-03-23T10:06:17;5.22;;;1.60;;
34836;SDS011;21053;50.848;4.652;2023-03-23T10:08:49;2.78;;;1.40;;
34836;SDS011;21053;50.848;4.652;2023-03-23T10:11:31;3.80;;;1.30;;
34836;SDS011;21053;50.848;4.652;2023-03-23T10:14:33;3.67;;;1.33;;
34836;SDS011;21053;50.848;4.652;2023-03-23T10:17:22;2.63;;;1.30;;
34836;SDS011;21053;50.848;4.652;2023-03-23T10:20:21;4.65;;;1.40;;
34836;SDS011;21053;50.848;4.652;2023-03-23T10:23:11;2.20;;;1.48;;
34836;SDS011;21053;50.848;4.652;2023-03-23T10:28:50;5.38;;;1.58;;
34836;SDS011;21053;50.848;4.652;2023-03-23T10:31:28;4.43;;;1.40;;
34836;SDS011;21053;50.848;4.652;2023-03-23T10:33:59;7.03;;;1.75;;
34836;SDS011;21053;50.848;4.652;2023-03-23T10:39:24;2.47;;;1.48;;
34836;SDS011;21053;50.848;4.652;2023-03-23T10:41:59;4.32;;;1.75;;
34836;SDS011;21053;50.848;4.652;2023-03-23T10:44:34;2.90;;;2.00;;
34836;SDS011;21053;50.848;4.652;2023-03-23T10:47:09;6.55;;;2.03;;
34836;SDS011;21053;50.848;4.652;2023-03-23T10:49:45;7.03;;;2.40;;
34836;SDS011;21053;50.848;4.652;2023-03-23T10:57:38;8.68;;;1.90;;
34836;SDS011;21053;50.848;4.652;2023-03-23T11:03:03;5.43;;;2.30;;
34836;SDS011;21053;50.848;4.652;2023-03-23T11:05:43;7.45;;;2.28;;
34836;SDS011;21053;50.848;4.652;2023-03-23T11:08:23;6.80;;;2.20;;
34836;SDS011;21053;50.848;4.652;2023-03-23T11:10:55;6.70;;;2.08;;
34836;SDS011;21053;50.848;4.652;2023-03-23T11:13:31;11.25;;;2.22;;
34836;SDS011;21053;50.848;4.652;2023-03-23T11:18:36;4.60;;;2.63;;
34836;SDS011;21053;50.848;4.652;2023-03-23T11:21:02;9.65;;;3.30;;
34836;SDS011;21053;50.848;4.652;2023-03-23T11:23:38;7.40;;;3.63;;
34836;SDS011;21053;50.848;4.652;2023-03-23T11:26:18;10.20;;;3.67;;
34836;SDS011;21053;50.848;4.652;2023-03-23T11:28:57;9.82;;;4.00;;
34836;SDS011;21053;50.848;4.652;2023-03-23T11:31:35;11.40;;;4.18;;
34836;SDS011;21053;50.848;4.652;2023-03-23T11:37:24;10.50;;;4.55;;
34836;SDS011;21053;50.848;4.652;2023-03-23T11:45:37;11.68;;;4.38;;
34836;SDS011;21053;50.848;4.652;2023-03-23T11:53:45;8.25;;;2.40;;
34836;SDS011;21053;50.848;4.652;2023-03-23T11:56:41;7.63;;;2.45;;
34836;SDS011;21053;50.848;4.652;2023-03-23T12:01:50;12.63;;;2.60;;
34836;SDS011;21053;50.848;4.652;2023-03-23T12:07:35;11.85;;;2.42;;
34836;SDS011;21053;50.848;4.652;2023-03-23T12:16:11;7.80;;;2.20;;
34836;SDS011;21053;50.848;4.652;2023-03-23T12:41:51;8.18;;;2.25;;
34836;SDS011;21053;50.848;4.652;2023-03-23T12:54:55;10.13;;;2.50;;
34836;SDS011;21053;50.848;4.652;2023-03-23T12:57:40;10.02;;;2.80;;
34836;SDS011;21053;50.848;4.652;2023-03-23T13:03:00;12.07;;;3.60;;
34836;SDS011;21053;50.848;4.652;2023-03-23T13:08:47;11.40;;;3.05;;
34836;SDS011;21053;50.848;4.652;2023-03-23T13:25:30;19.60;;;3.70;;
34836;SDS011;21053;50.848;4.652;2023-03-23T13:28:25;17.60;;;3.25;;
34836;SDS011;21053;50.848;4.652;2023-03-23T13:33:32;10.63;;;3.17;;
34836;SDS011;21053;50.848;4.652;2023-03-23T13:36:08;13.02;;;3.50;;
34836;SDS011;21053;50.848;4.652;2023-03-23T13:38:39;11.52;;;3.15;;
34836;SDS011;21053;50.848;4.652;2023-03-23T13:41:17;16.33;;;2.92;;
34836;SDS011;21053;50.848;4.652;2023-03-23T13:43:52;10.90;;;3.47;;
34836;SDS011;21053;50.848;4.652;2023-03-23T13:46:35;12.32;;;3.90;;
34836;SDS011;21053;50.848;4.652;2023-03-23T13:54:45;13.52;;;3.25;;
34836;SDS011;21053;50.848;4.652;2023-03-23T13:57:26;21.67;;;3.22;;
34836;SDS011;21053;50.848;4.652;2023-03-23T14:08:40;9.48;;;2.50;;
34836;SDS011;21053;50.848;4.652;2023-03-23T14:11:15;13.30;;;3.28;;
34836;SDS011;21053;50.848;4.652;2023-03-23T14:14:06;12.25;;;2.70;;
34836;SDS011;21053;50.848;4.652;2023-03-23T14:16:39;12.90;;;2.58;;
34836;SDS011;21053;50.848;4.652;2023-03-23T14:19:17;11.25;;;2.78;;
34836;SDS011;21053;50.848;4.652;2023-03-23T14:22:00;11.25;;;2.45;;
34836;SDS011;21053;50.848;4.652;2023-03-23T14:24:31;12.75;;;2.83;;
34836;SDS011;21053;50.848;4.652;2023-03-23T14:27:14;24.67;;;3.67;;
34836;SDS011;21053;50.848;4.652;2023-03-23T14:32:15;10.20;;;2.28;;
34836;SDS011;21053;50.848;4.652;2023-03-23T14:34:48;11.38;;;2.42;;
34836;SDS011;21053;50.848;4.652;2023-03-23T14:39:49;14.35;;;2.92;;
34836;SDS011;21053;50.848;4.652;2023-03-23T14:42:28;14.57;;;2.88;;
34836;SDS011;21053;50.848;4.652;2023-03-23T14:44:59;19.13;;;2.92;;
34836;SDS011;21053;50.848;4.652;2023-03-23T14:47:32;13.20;;;2.85;;
34836;SDS011;21053;50.848;4.652;2023-03-23T14:52:35;14.07;;;3.15;;
34836;SDS011;21053;50.848;4.652;2023-03-23T14:55:21;13.73;;;3.25;;
34836;SDS011;21053;50.848;4.652;2023-03-23T14:57:48;11.85;;;2.92;;
34836;SDS011;21053;50.848;4.652;2023-03-23T15:00:22;8.63;;;2.90;;
34836;SDS011;21053;50.848;4.652;2023-03-23T15:02:56;18.98;;;3.30;;
34836;SDS011;21053;50.848;4.652;2023-03-23T15:05:28;15.55;;;2.78;;
34836;SDS011;21053;50.848;4.652;2023-03-23T15:08:04;14.07;;;2.65;;
34836;SDS011;21053;50.848;4.652;2023-03-23T15:10:38;11.18;;;2.30;;
34836;SDS011;21053;50.848;4.652;2023-03-23T15:13:09;13.98;;;2.60;;
34836;SDS011;21053;50.848;4.652;2023-03-23T15:15:39;22.20;;;3.22;;
34836;SDS011;21053;50.848;4.652;2023-03-23T15:18:17;11.82;;;2.50;;
34836;SDS011;21053;50.848;4.652;2023-03-23T15:20:56;14.05;;;2.40;;
34836;SDS011;21053;50.848;4.652;2023-03-23T15:23:27;11.63;;;2.60;;
34836;SDS011;21053;50.848;4.652;2023-03-23T15:27:02;15.27;;;2.70;;
34836;SDS011;21053;50.848;4.652;2023-03-23T15:29:34;11.90;;;2.22;;
34836;SDS011;21053;50.848;4.652;2023-03-23T15:32:12;18.75;;;2.80;;
34836;SDS011;21053;50.848;4.652;2023-03-23T15:34:40;18.10;;;3.15;;
34836;SDS011;21053;50.848;4.652;2023-03-23T15:37:20;13.13;;;2.30;;
34836;SDS011;21053;50.848;4.652;2023-03-23T15:39:57;13.70;;;2.60;;
34836;SDS011;21053;50.848;4.652;2023-03-23T15:42:34;10.23;;;2.60;;
34836;SDS011;21053;50.848;4.652;2023-03-23T15:55:41;27.60;;;3.38;;
34836;SDS011;21053;50.848;4.652;2023-03-23T15:58:09;11.63;;;2.88;;
34836;SDS011;21053;50.848;4.652;2023-03-23T16:00:40;11.50;;;2.50;;
34836;SDS011;21053;50.848;4.652;2023-03-23T16:03:10;14.20;;;2.72;;
34836;SDS011;21053;50.848;4.652;2023-03-23T16:05:41;11.73;;;3.03;;
34836;SDS011;21053;50.848;4.652;2023-03-23T16:08:10;10.32;;;2.35;;
34836;SDS011;21053;50.848;4.652;2023-03-23T16:13:20;9.82;;;2.72;;
34836;SDS011;21053;50.848;4.652;2023-03-23T16:15:48;15.75;;;3.05;;
34836;SDS011;21053;50.848;4.652;2023-03-23T16:18:20;20.25;;;3.20;;
34836;SDS011;21053;50.848;4.652;2023-03-23T16:20:49;11.90;;;2.63;;
34836;SDS011;21053;50.848;4.652;2023-03-23T16:25:46;10.07;;;2.60;;
34836;SDS011;21053;50.848;4.652;2023-03-23T16:28:15;25.40;;;2.67;;
34836;SDS011;21053;50.848;4.652;2023-03-23T16:33:11;11.20;;;2.50;;
34836;SDS011;21053;50.848;4.652;2023-03-23T16:35:37;16.42;;;3.13;;
34836;SDS011;21053;50.848;4.652;2023-03-23T16:38:04;10.68;;;2.80;;
34836;SDS011;21053;50.848;4.652;2023-03-23T16:40:31;14.40;;;2.22;;
34836;SDS011;21053;50.848;4.652;2023-03-23T16:43:00;11.32;;;2.65;;
34836;SDS011;21053;50.848;4.652;2023-03-23T16:45:26;14.38;;;2.60;;
34836;SDS011;21053;50.848;4.652;2023-03-23T16:47:52;13.90;;;2.40;;
34836;SDS011;21053;50.848;4.652;2023-03-23T16:50:24;13.05;;;2.20;;
34836;SDS011;21053;50.848;4.652;2023-03-23T16:52:51;10.93;;;2.47;;
34836;SDS011;21053;50.848;4.652;2023-03-23T16:55:17;14.38;;;2.83;;
34836;SDS011;21053;50.848;4.652;2023-03-23T16:58:26;13.95;;;2.63;;
34836;SDS011;21053;50.848;4.652;2023-03-23T17:03:21;9.35;;;2.47;;
34836;SDS011;21053;50.848;4.652;2023-03-23T17:05:50;10.40;;;2.25;;
34836;SDS011;21053;50.848;4.652;2023-03-23T17:08:17;14.32;;;2.83;;
34836;SDS011;21053;50.848;4.652;2023-03-23T17:10:44;8.68;;;2.58;;
34836;SDS011;21053;50.848;4.652;2023-03-23T17:13:10;12.45;;;2.65;;
34836;SDS011;21053;50.848;4.652;2023-03-23T17:15:39;16.35;;;2.95;;
34836;SDS011;21053;50.848;4.652;2023-03-23T17:18:08;10.05;;;2.28;;
34836;SDS011;21053;50.848;4.652;2023-03-23T17:20:35;11.15;;;2.97;;
34836;SDS011;21053;50.848;4.652;2023-03-23T17:23:01;14.82;;;3.10;;
34836;SDS011;21053;50.848;4.652;2023-03-23T17:25:30;13.60;;;2.70;;
34836;SDS011;21053;50.848;4.652;2023-03-23T17:27:58;11.77;;;2.65;;
34836;SDS011;21053;50.848;4.652;2023-03-23T17:30:25;17.00;;;2.33;;
34836;SDS011;21053;50.848;4.652;2023-03-23T17:32:52;11.70;;;2.78;;
34836;SDS011;21053;50.848;4.652;2023-03-23T17:35:21;9.25;;;2.55;;
34836;SDS011;21053;50.848;4.652;2023-03-23T17:37:48;12.82;;;2.30;;
34836;SDS011;21053;50.848;4.652;2023-03-23T17:42:42;9.57;;;2.67;;
34836;SDS011;21053;50.848;4.652;2023-03-23T17:45:14;12.27;;;2.70;;
34836;SDS011;21053;50.848;4.652;2023-03-23T17:47:43;22.10;;;3.25;;
34836;SDS011;21053;50.848;4.652;2023-03-23T17:50:09;13.77;;;2.90;;
34836;SDS011;21053;50.848;4.652;2023-03-23T17:52:35;13.20;;;2.70;;
34836;SDS011;21053;50.848;4.652;2023-03-23T17:55:01;11.05;;;2.75;;
34836;SDS011;21053;50.848;4.652;2023-03-23T17:57:30;12.48;;;2.83;;
34836;SDS011;21053;50.848;4.652;2023-03-23T17:59:59;16.63;;;2.90;;
34836;SDS011;21053;50.848;4.652;2023-03-23T18:02:26;18.45;;;3.05;;
34836;SDS011;21053;50.848;4.652;2023-03-23T18:04:55;18.83;;;3.10;;
34836;SDS011;21053;50.848;4.652;2023-03-23T18:07:21;16.23;;;2.78;;
34836;SDS011;21053;50.848;4.652;2023-03-23T18:09:48;17.60;;;2.95;;
34836;SDS011;21053;50.848;4.652;2023-03-23T18:14:46;14.05;;;3.10;;
34836;SDS011;21053;50.848;4.652;2023-03-23T18:17:12;18.13;;;2.97;;
34836;SDS011;21053;50.848;4.652;2023-03-23T18:19:37;19.17;;;2.97;;
34836;SDS011;21053;50.848;4.652;2023-03-23T18:22:03;18.80;;;3.70;;
34836;SDS011;21053;50.848;4.652;2023-03-23T18:24:31;11.07;;;2.55;;
34836;SDS011;21053;50.848;4.652;2023-03-23T18:26:56;12.52;;;2.85;;
34836;SDS011;21053;50.848;4.652;2023-03-23T18:29:24;12.20;;;2.90;;
34836;SDS011;21053;50.848;4.652;2023-03-23T18:31:52;15.50;;;3.20;;
34836;SDS011;21053;50.848;4.652;2023-03-23T18:34:18;14.38;;;3.08;;
34836;SDS011;21053;50.848;4.652;2023-03-23T18:39:13;14.80;;;2.97;;
34836;SDS011;21053;50.848;4.652;2023-03-23T18:41:40;10.60;;;2.58;;
34836;SDS011;21053;50.848;4.652;2023-03-23T18:44:09;20.13;;;2.95;;
34836;SDS011;21053;50.848;4.652;2023-03-23T18:46:41;19.00;;;2.92;;
34836;SDS011;21053;50.848;4.652;2023-03-23T18:49:10;12.80;;;3.08;;
34836;SDS011;21053;50.848;4.652;2023-03-23T18:51:37;10.77;;;2.83;;
34836;SDS011;21053;50.848;4.652;2023-03-23T18:54:04;19.42;;;2.92;;
34836;SDS011;21053;50.848;4.652;2023-03-23T18:56:30;15.23;;;3.00;;
34836;SDS011;21053;50.848;4.652;2023-03-23T18:58:57;15.68;;;2.72;;
34836;SDS011;21053;50.848;4.652;2023-03-23T19:01:23;14.77;;;2.78;;
34836;SDS011;21053;50.848;4.652;2023-03-23T19:06:19;9.73;;;2.38;;
34836;SDS011;21053;50.848;4.652;2023-03-23T19:08:48;12.48;;;2.80;;
34836;SDS011;21053;50.848;4.652;2023-03-23T19:11:19;9.30;;;3.20;;
34836;SDS011;21053;50.848;4.652;2023-03-23T19:13:46;9.32;;;2.70;;
34836;SDS011;21053;50.848;4.652;2023-03-23T19:16:12;6.90;;;2.53;;
34836;SDS011;21053;50.848;4.652;2023-03-23T19:18:38;12.93;;;2.97;;
34836;SDS011;21053;50.848;4.652;2023-03-23T19:26:04;19.52;;;2.88;;
34836;SDS011;21053;50.848;4.652;2023-03-23T19:28:30;11.30;;;2.22;;
34836;SDS011;21053;50.848;4.652;2023-03-23T19:30:56;13.75;;;2.58;;
34836;SDS011;21053;50.848;4.652;2023-03-23T19:33:26;11.75;;;2.58;;
34836;SDS011;21053;50.848;4.652;2023-03-23T19:35:52;12.77;;;2.53;;
34836;SDS011;21053;50.848;4.652;2023-03-23T19:38:21;14.15;;;2.88;;
34836;SDS011;21053;50.848;4.652;2023-03-23T19:40:52;15.48;;;2.97;;